Time;durP1;ratioP1;P1;durP2;ratioP2;P2;SDS_P1;SDS_P2;PMS_P1;PMS_P2;Temp;Humidity;BMP_temperature;BMP_pressure;BME280_temperature;BME280_humidity;BME280_pressure;Samples;Min_cycle;Max_cycle;Signal;HPM_P1;HPM_P2
2023/06/17 00:00:55;;;;;;;;;26.67;24.33;;;;;;;;5034207;28;48565;-77
2023/06/17 00:03:21;;;;;;;;;24.67;24.33;;;;;;;;5052952;28;45691;-77
2023/06/17 00:05:46;;;;;;;;;26.00;22.33;;;;;;;;5052575;28;45474;-77
2023/06/17 00:08:11;;;;;;;;;20.33;17.33;;;;;;;;5033329;28;46467;-76
2023/06/17 00:10:36;;;;;;;;;31.67;24.67;;;;;;;;5052249;28;45536;-75
2023/06/17 00:13:02;;;;;;;;;19.67;18.00;;;;;;;;5052078;28;45670;-76
2023/06/17 00:15:32;;;;;;;;;22.33;19.00;;;;;;;;5051887;28;45670;-76
2023/06/17 00:18:00;;;;;;;;;18.33;17.33;;;;;;;;5051705;28;45665;-75
2023/06/17 00:20:25;;;;;;;;;18.67;18.67;;;;;;;;5054967;28;45533;-75
2023/06/17 00:22:52;;;;;;;;;27.33;24.33;;;;;;;;5059619;28;45385;-76
2023/06/17 00:25:18;;;;;;;;;17.33;16.67;;;;;;;;5053839;28;45513;-76
2023/06/17 00:27:43;;;;;;;;;19.67;19.33;;;;;;;;5056745;28;45751;-75
2023/06/17 00:30:09;;;;;;;;;19.33;19.00;;;;;;;;5043308;28;46482;-77
2023/06/17 00:32:35;;;;;;;;;28.33;22.00;;;;;;;;5069710;28;45493;-80
2023/06/17 00:35:02;;;;;;;;;25.00;24.00;;;;;;;;5075853;28;45740;-79
2023/06/17 00:37:27;;;;;;;;;23.00;21.33;;;;;;;;5067308;28;45442;-79
2023/06/17 00:39:52;;;;;;;;;19.67;18.33;;;;;;;;5047632;28;47273;-79
2023/06/17 00:42:17;;;;;;;;;23.00;22.67;;;;;;;;5074857;28;45324;-80
2023/06/17 00:44:43;;;;;;;;;29.33;25.33;;;;;;;;5063366;28;45735;-80
2023/06/17 00:47:09;;;;;;;;;32.00;29.00;;;;;;;;5045516;28;46534;-80
2023/06/17 00:49:39;;;;;;;;;23.67;23.00;;;;;;;;5080664;28;45165;-80
2023/06/17 00:52:07;;;;;;;;;32.00;27.33;;;;;;;;5063836;28;45433;-78
2023/06/17 00:54:33;;;;;;;;;32.00;30.00;;;;;;;;5048988;28;45457;-78
2023/06/17 00:57:01;;;;;;;;;30.33;27.00;;;;;;;;5067878;28;45583;-79
2023/06/17 00:59:26;;;;;;;;;31.00;27.33;;;;;;;;5067973;28;45676;-78
2023/06/17 01:01:52;;;;;;;;;26.67;26.00;;;;;;;;5061102;28;45485;-80
2023/06/17 01:04:18;;;;;;;;;29.33;29.33;;;;;;;;5066039;28;45340;-79
2023/06/17 01:06:52;;;;;;;;;31.67;26.33;;;;;;;;5071732;28;45526;-81
2023/06/17 01:09:19;;;;;;;;;36.00;32.33;;;;;;;;5074549;28;45443;-79
2023/06/17 01:11:46;;;;;;;;;37.67;33.00;;;;;;;;5070079;28;44822;-80
2023/06/17 01:14:13;;;;;;;;;37.33;32.67;;;;;;;;5075908;28;45383;-80
2023/06/17 01:16:42;;;;;;;;;42.67;35.67;;;;;;;;5069293;28;44815;-80
2023/06/17 01:19:18;;;;;;;;;32.33;30.33;;;;;;;;5070374;28;46408;-78
2023/06/17 01:21:48;;;;;;;;;35.33;33.00;;;;;;;;5049127;28;45385;-79
2023/06/17 01:24:21;;;;;;;;;32.00;30.00;;;;;;;;5069318;28;45403;-77
2023/06/17 01:26:54;;;;;;;;;36.00;32.67;;;;;;;;5074213;28;45646;-79
2023/06/17 01:29:19;;;;;;;;;40.33;33.33;;;;;;;;5067601;28;45328;-79
2023/06/17 01:31:48;;;;;;;;;40.67;33.00;;;;;;;;5070683;28;45876;-79
2023/06/17 01:34:14;;;;;;;;;39.67;34.33;;;;;;;;5047804;28;45529;-80
2023/06/17 01:36:40;;;;;;;;;36.67;33.67;;;;;;;;5053299;28;46355;-80
2023/06/17 01:39:09;;;;;;;;;42.67;34.00;;;;;;;;5074091;28;45506;-79
2023/06/17 01:41:45;;;;;;;;;33.33;28.67;;;;;;;;5070113;28;45268;-80
2023/06/17 01:44:11;;;;;;;;;37.00;33.33;;;;;;;;5076230;28;45470;-80
2023/06/17 01:46:37;;;;;;;;;18.67;17.00;;;;;;;;5053146;28;46409;-80
2023/06/17 01:49:02;;;;;;;;;32.67;29.67;;;;;;;;5080202;28;45862;-79
2023/06/17 01:51:28;;;;;;;;;34.33;31.33;;;;;;;;5067809;28;45387;-80
2023/06/17 01:53:53;;;;;;;;;49.00;37.67;;;;;;;;5067852;28;45512;-80
2023/06/17 01:56:19;;;;;;;;;29.00;26.00;;;;;;;;5067275;28;45422;-79
2023/06/17 01:58:45;;;;;;;;;42.00;35.67;;;;;;;;5063052;28;45504;-80
2023/06/17 02:01:10;;;;;;;;;34.33;32.67;;;;;;;;5060828;28;45413;-80
2023/06/17 02:03:35;;;;;;;;;35.00;32.67;;;;;;;;5059967;28;45194;-81
2023/06/17 02:06:01;;;;;;;;;31.67;31.67;;;;;;;;5060988;28;45536;-80
2023/06/17 02:08:26;;;;;;;;;38.67;34.00;;;;;;;;5055167;28;45766;-79
2023/06/17 02:10:52;;;;;;;;;34.33;30.33;;;;;;;;5062210;28;45452;-80
2023/06/17 02:13:17;;;;;;;;;29.67;28.33;;;;;;;;5068520;28;45414;-80
2023/06/17 02:15:42;;;;;;;;;39.33;30.33;;;;;;;;5061857;28;45621;-79
2023/06/17 02:18:12;;;;;;;;;28.33;27.33;;;;;;;;5042741;28;47233;-81
2023/06/17 02:20:37;;;;;;;;;29.00;26.67;;;;;;;;5061120;28;45386;-80
2023/06/17 02:23:02;;;;;;;;;26.33;26.33;;;;;;;;5062266;28;45461;-80
2023/06/17 02:25:28;;;;;;;;;33.67;31.67;;;;;;;;5062565;28;45505;-81
2023/06/17 02:27:53;;;;;;;;;34.67;30.67;;;;;;;;5062862;28;45271;-79
2023/06/17 02:30:18;;;;;;;;;33.00;31.00;;;;;;;;5058321;28;45394;-80
2023/06/17 02:32:44;;;;;;;;;52.00;41.33;;;;;;;;5055036;28;45666;-80
2023/06/17 02:35:10;;;;;;;;;37.33;32.00;;;;;;;;5063147;28;44911;-79
2023/06/17 02:37:36;;;;;;;;;31.67;29.33;;;;;;;;5049895;28;47978;-78
2023/06/17 02:40:01;;;;;;;;;28.67;28.67;;;;;;;;5052451;28;45307;-80
2023/06/17 02:42:26;;;;;;;;;36.00;33.33;;;;;;;;5066140;28;45670;-79
2023/06/17 02:44:52;;;;;;;;;32.33;30.33;;;;;;;;5067224;28;45486;-79
2023/06/17 02:47:17;;;;;;;;;33.33;29.67;;;;;;;;5061719;28;45467;-81
2023/06/17 02:49:42;;;;;;;;;30.67;29.67;;;;;;;;5048150;28;45627;-81
2023/06/17 02:52:08;;;;;;;;;35.33;30.67;;;;;;;;5062881;28;45550;-79
2023/06/17 02:54:33;;;;;;;;;29.33;27.00;;;;;;;;5062337;28;45332;-78
2023/06/17 02:56:58;;;;;;;;;32.67;30.67;;;;;;;;5045233;28;46283;-80
2023/06/17 02:59:24;;;;;;;;;32.00;27.33;;;;;;;;5063731;28;45473;-80
2023/06/17 03:01:50;;;;;;;;;38.67;32.67;;;;;;;;5055003;28;45483;-79
2023/06/17 03:04:20;;;;;;;;;30.00;26.67;;;;;;;;5062640;28;45343;-80
2023/06/17 03:06:45;;;;;;;;;33.67;30.33;;;;;;;;5061973;28;46833;-80
2023/06/17 03:09:11;;;;;;;;;27.00;25.33;;;;;;;;5051793;28;45881;-81
2023/06/17 03:11:36;;;;;;;;;29.00;28.00;;;;;;;;5062986;28;45848;-79
2023/06/17 03:14:02;;;;;;;;;29.67;27.67;;;;;;;;5046696;28;46279;-80
2023/06/17 03:16:29;;;;;;;;;23.00;20.00;;;;;;;;5069251;28;45633;-79
2023/06/17 03:18:54;;;;;;;;;33.00;27.33;;;;;;;;5062813;28;45423;-79
2023/06/17 03:21:20;;;;;;;;;29.67;28.33;;;;;;;;5065102;28;45700;-79
2023/06/17 03:23:48;;;;;;;;;28.67;27.33;;;;;;;;5069180;28;45635;-81
2023/06/17 03:26:13;;;;;;;;;28.00;25.00;;;;;;;;5070550;28;45724;-79
2023/06/17 03:28:38;;;;;;;;;25.33;22.33;;;;;;;;5068605;28;45454;-80
2023/06/17 03:31:04;;;;;;;;;28.33;26.00;;;;;;;;5065235;28;45390;-77
2023/06/17 03:33:29;;;;;;;;;34.33;27.67;;;;;;;;5055321;28;45948;-80
2023/06/17 03:35:55;;;;;;;;;27.00;25.67;;;;;;;;5069304;28;45329;-80
2023/06/17 03:38:26;;;;;;;;;30.67;28.67;;;;;;;;5063500;28;45457;-80
2023/06/17 03:40:52;;;;;;;;;31.33;27.33;;;;;;;;5061787;28;45726;-80
2023/06/17 03:43:17;;;;;;;;;28.00;25.00;;;;;;;;5047917;28;45479;-83
2023/06/17 03:45:42;;;;;;;;;32.00;27.00;;;;;;;;5062316;28;45286;-79
2023/06/17 03:48:08;;;;;;;;;40.00;27.67;;;;;;;;5041249;28;45359;-80
2023/06/17 03:50:33;;;;;;;;;20.33;19.67;;;;;;;;5055859;28;45471;-81
2023/06/17 03:52:58;;;;;;;;;33.67;31.33;;;;;;;;5062624;28;45499;-79
2023/06/17 03:55:24;;;;;;;;;54.67;44.00;;;;;;;;5050557;28;47041;-80
2023/06/17 03:57:50;;;;;;;;;30.33;29.33;;;;;;;;5050749;28;45533;-80
2023/06/17 04:00:16;;;;;;;;;18.00;15.67;;;;;;;;5066233;28;45445;-80
2023/06/17 04:02:45;;;;;;;;;36.33;31.67;;;;;;;;5062281;28;45466;-79
2023/06/17 04:05:11;;;;;;;;;37.00;32.00;;;;;;;;5055137;28;45564;-78
2023/06/17 04:07:38;;;;;;;;;21.67;20.33;;;;;;;;5048191;28;45558;-80
2023/06/17 04:10:04;;;;;;;;;28.67;27.33;;;;;;;;5066326;28;45519;-79
2023/06/17 04:12:30;;;;;;;;;24.67;21.33;;;;;;;;5056014;28;45948;-79
2023/06/17 04:14:55;;;;;;;;;28.67;24.33;;;;;;;;5071821;28;45738;-79
2023/06/17 04:17:20;;;;;;;;;31.67;29.33;;;;;;;;5061219;28;45487;-79
2023/06/17 04:19:46;;;;;;;;;26.00;25.00;;;;;;;;5054805;28;45560;-79
2023/06/17 04:22:11;;;;;;;;;28.67;24.67;;;;;;;;5045383;28;46672;-80
2023/06/17 04:24:38;;;;;;;;;28.33;24.33;;;;;;;;5061102;28;46181;-79
2023/06/17 04:27:05;;;;;;;;;23.00;23.00;;;;;;;;5072814;28;45373;-78
2023/06/17 04:29:34;;;;;;;;;23.67;21.67;;;;;;;;5068682;28;45755;-81
2023/06/17 04:32:01;;;;;;;;;23.67;22.00;;;;;;;;5061837;28;45506;-79
2023/06/17 04:34:26;;;;;;;;;21.33;19.67;;;;;;;;5045900;28;47283;-78
2023/06/17 04:36:57;;;;;;;;;32.67;28.67;;;;;;;;5067127;28;45552;-81
2023/06/17 04:39:26;;;;;;;;;28.33;25.67;;;;;;;;5074078;28;45385;-80
2023/06/17 04:41:52;;;;;;;;;31.67;28.67;;;;;;;;5065447;28;45746;-80
2023/06/17 04:44:17;;;;;;;;;31.00;23.67;;;;;;;;5050559;28;46614;-80
2023/06/17 04:46:43;;;;;;;;;26.00;24.00;;;;;;;;5068209;28;45505;-80
2023/06/17 04:49:09;;;;;;;;;26.00;24.00;;;;;;;;5051002;28;45388;-79
2023/06/17 04:51:38;;;;;;;;;26.33;23.33;;;;;;;;5075269;28;45678;-80
2023/06/17 04:54:05;;;;;;;;;24.67;22.33;;;;;;;;5059745;28;45832;-80
2023/06/17 04:56:30;;;;;;;;;30.33;25.67;;;;;;;;5066121;28;45649;-80
2023/06/17 04:58:56;;;;;;;;;30.33;24.33;;;;;;;;5064306;28;45892;-80
2023/06/17 05:01:21;;;;;;;;;24.00;22.33;;;;;;;;5060053;28;45299;-82
2023/06/17 05:03:46;;;;;;;;;25.67;22.67;;;;;;;;5064135;28;45603;-81
2023/06/17 05:06:12;;;;;;;;;22.00;20.33;;;;;;;;5065655;28;45553;-80
2023/06/17 05:08:37;;;;;;;;;22.67;20.33;;;;;;;;5063961;28;45374;-80
2023/06/17 05:11:02;;;;;;;;;27.33;25.33;;;;;;;;5066192;28;45430;-82
2023/06/17 05:13:28;;;;;;;;;25.00;21.33;;;;;;;;5064566;28;46355;-80
2023/06/17 05:15:53;;;;;;;;;19.00;18.00;;;;;;;;5064161;28;45433;-78
2023/06/17 05:18:18;;;;;;;;;17.67;17.67;;;;;;;;5065147;28;45715;-80
2023/06/17 05:20:44;;;;;;;;;18.33;17.33;;;;;;;;5067095;28;45857;-79
2023/06/17 05:23:12;;;;;;;;;20.33;20.33;;;;;;;;5050869;28;47168;-82
2023/06/17 05:25:37;;;;;;;;;20.00;20.00;;;;;;;;5057444;28;45462;-78
2023/06/17 05:28:05;;;;;;;;;17.67;17.67;;;;;;;;5043672;28;45256;-80
2023/06/17 05:30:30;;;;;;;;;20.67;19.67;;;;;;;;5057295;28;45490;-80
2023/06/17 05:32:56;;;;;;;;;18.33;18.33;;;;;;;;5066060;28;46218;-80
2023/06/17 05:35:21;;;;;;;;;20.67;18.33;;;;;;;;5066213;28;45494;-80
2023/06/17 05:37:47;;;;;;;;;17.00;16.33;;;;;;;;5065367;28;46429;-80
2023/06/17 05:40:13;;;;;;;;;20.00;17.33;;;;;;;;5064311;28;45741;-85
2023/06/17 05:42:39;;;;;;;;;22.33;22.33;;;;;;;;5062502;28;47418;-82
2023/06/17 05:45:04;;;;;;;;;21.33;18.67;;;;;;;;5042935;28;45994;-81
2023/06/17 05:47:30;;;;;;;;;18.00;18.00;;;;;;;;5065089;28;45139;-80
2023/06/17 05:49:55;;;;;;;;;13.67;13.67;;;;;;;;5067854;28;45876;-81
2023/06/17 05:52:20;;;;;;;;;16.00;16.00;;;;;;;;5045685;28;47604;-82
2023/06/17 05:54:46;;;;;;;;;15.00;14.33;;;;;;;;5044690;28;45435;-81
2023/06/17 05:57:11;;;;;;;;;16.00;14.67;;;;;;;;5046505;28;45766;-82
2023/06/17 05:59:49;;;;;;;;;15.67;15.67;;;;;;;;5060032;28;45179;-80
2023/06/17 06:02:15;;;;;;;;;15.00;15.00;;;;;;;;5063160;28;45182;-81
2023/06/17 06:04:40;;;;;;;;;17.67;14.33;;;;;;;;5068068;27;45659;-82
2023/06/17 06:07:05;;;;;;;;;13.33;11.33;;;;;;;;5062497;28;45705;-83
2023/06/17 06:09:31;;;;;;;;;12.67;12.67;;;;;;;;5068135;28;45814;-82
2023/06/17 06:11:56;;;;;;;;;17.67;14.67;;;;;;;;5064139;27;45392;-82
2023/06/17 06:14:21;;;;;;;;;14.33;14.33;;;;;;;;5045087;28;45458;-79
2023/06/17 06:16:46;;;;;;;;;16.67;15.67;;;;;;;;5045882;28;45418;-81
2023/06/17 06:19:12;;;;;;;;;16.00;14.33;;;;;;;;5064318;28;45669;-81
2023/06/17 06:21:37;;;;;;;;;16.67;13.00;;;;;;;;5064071;28;45915;-81
2023/06/17 06:24:02;;;;;;;;;17.00;16.00;;;;;;;;5057783;28;45232;-81
2023/06/17 06:26:33;;;;;;;;;15.33;12.67;;;;;;;;5040634;28;45833;-82
2023/06/17 06:29:00;;;;;;;;;13.33;12.33;;;;;;;;5055944;28;45782;-81
2023/06/17 06:31:25;;;;;;;;;12.67;12.67;;;;;;;;5056613;28;46160;-81
2023/06/17 06:33:50;;;;;;;;;14.67;12.67;;;;;;;;5032227;28;45861;-81
2023/06/17 06:36:16;;;;;;;;;14.33;12.00;;;;;;;;5044242;28;45591;-83
2023/06/17 06:38:41;;;;;;;;;13.33;13.33;;;;;;;;5058852;28;46590;-80
2023/06/17 06:41:06;;;;;;;;;12.33;12.33;;;;;;;;5040834;28;46129;-84
2023/06/17 06:43:32;;;;;;;;;14.33;14.33;;;;;;;;5056529;28;45516;-82
2023/06/17 06:45:57;;;;;;;;;13.67;12.33;;;;;;;;5056412;28;45488;-81
2023/06/17 06:48:23;;;;;;;;;13.00;10.67;;;;;;;;5056223;28;45483;-80
2023/06/17 06:50:48;;;;;;;;;13.33;12.00;;;;;;;;5065154;28;45793;-81
2023/06/17 06:53:14;;;;;;;;;11.33;11.33;;;;;;;;5046127;28;44851;-81
2023/06/17 06:55:41;;;;;;;;;18.67;16.67;;;;;;;;5046671;28;45598;-82
2023/06/17 06:58:06;;;;;;;;;14.00;12.67;;;;;;;;5060302;28;45581;-83
2023/06/17 07:00:32;;;;;;;;;10.00;10.00;;;;;;;;5060955;28;45826;-81
2023/06/17 07:02:57;;;;;;;;;12.67;12.67;;;;;;;;5050766;28;45428;-82
2023/06/17 07:05:22;;;;;;;;;14.67;13.00;;;;;;;;5061195;28;45664;-81
2023/06/17 07:07:48;;;;;;;;;11.67;11.67;;;;;;;;5064033;28;45292;-81
2023/06/17 07:10:13;;;;;;;;;17.33;15.00;;;;;;;;5046899;28;47041;-82
2023/06/17 07:12:40;;;;;;;;;11.33;11.33;;;;;;;;5047791;28;44934;-81
2023/06/17 07:15:06;;;;;;;;;12.33;12.33;;;;;;;;5054849;28;45668;-83
2023/06/17 07:17:32;;;;;;;;;11.67;7.33;;;;;;;;5032634;28;46259;-83
2023/06/17 07:19:59;;;;;;;;;14.00;12.33;;;;;;;;5053434;28;45653;-80
2023/06/17 07:22:24;;;;;;;;;15.00;12.33;;;;;;;;5055267;28;45214;-80
2023/06/17 07:24:50;;;;;;;;;11.33;11.33;;;;;;;;5053552;28;45577;-80
2023/06/17 07:27:15;;;;;;;;;11.67;11.67;;;;;;;;5055249;28;45878;-78
2023/06/17 07:29:40;;;;;;;;;14.00;13.00;;;;;;;;5058135;28;46196;-82
2023/06/17 07:32:06;;;;;;;;;12.00;9.00;;;;;;;;5045498;28;45374;-84
2023/06/17 07:34:31;;;;;;;;;14.67;12.33;;;;;;;;5047493;28;45454;-81
2023/06/17 07:36:57;;;;;;;;;10.33;10.33;;;;;;;;5054248;28;46002;-83
2023/06/17 07:39:22;;;;;;;;;12.00;10.33;;;;;;;;5059567;28;45506;-82
2023/06/17 07:41:47;;;;;;;;;10.00;10.00;;;;;;;;5059904;28;45653;-82
2023/06/17 07:44:13;;;;;;;;;11.00;11.00;;;;;;;;5050919;28;45387;-81
2023/06/17 07:46:38;;;;;;;;;12.00;12.00;;;;;;;;5045054;28;46010;-80
2023/06/17 07:49:03;;;;;;;;;9.67;9.67;;;;;;;;5060233;28;46346;-82
2023/06/17 07:51:30;;;;;;;;;10.67;10.67;;;;;;;;5059816;28;45493;-82
2023/06/17 07:53:55;;;;;;;;;11.67;11.67;;;;;;;;5042074;28;45904;-86
2023/06/17 07:56:25;;;;;;;;;9.00;9.00;;;;;;;;5063628;28;45437;-84
2023/06/17 07:58:51;;;;;;;;;14.00;11.67;;;;;;;;5054484;28;45550;-80
2023/06/17 08:01:16;;;;;;;;;14.00;11.33;;;;;;;;5040538;28;45565;-82
2023/06/17 08:03:42;;;;;;;;;10.33;10.33;;;;;;;;5058779;28;45479;-81
2023/06/17 08:06:08;;;;;;;;;11.33;11.33;;;;;;;;5058020;28;45335;-77
2023/06/17 08:08:33;;;;;;;;;12.00;11.67;;;;;;;;5058523;28;45379;-75
2023/06/17 08:10:59;;;;;;;;;12.00;11.33;;;;;;;;5052350;28;45344;-75
2023/06/17 08:13:24;;;;;;;;;12.67;10.67;;;;;;;;5059111;28;45761;-78
2023/06/17 08:15:51;;;;;;;;;12.33;10.00;;;;;;;;5042165;28;45074;-78
2023/06/17 08:18:17;;;;;;;;;10.33;10.33;;;;;;;;5042383;28;47362;-78
2023/06/17 08:20:43;;;;;;;;;12.00;10.67;;;;;;;;5058975;28;44820;-77
2023/06/17 08:23:08;;;;;;;;;14.00;12.00;;;;;;;;5048341;28;44860;-78
2023/06/17 08:25:33;;;;;;;;;10.67;10.67;;;;;;;;5065982;28;45497;-79
2023/06/17 08:27:59;;;;;;;;;11.67;11.67;;;;;;;;5049910;28;47124;-80
2023/06/17 08:30:24;;;;;;;;;11.33;10.33;;;;;;;;5046001;28;45026;-82
2023/06/17 08:32:49;;;;;;;;;13.33;10.33;;;;;;;;5064413;28;45721;-81
2023/06/17 08:35:15;;;;;;;;;12.67;12.67;;;;;;;;5065377;28;44807;-80
2023/06/17 08:37:40;;;;;;;;;10.00;10.00;;;;;;;;5050458;28;47470;-82
2023/06/17 08:40:06;;;;;;;;;11.00;11.00;;;;;;;;5066579;28;45586;-79
2023/06/17 08:42:31;;;;;;;;;11.33;11.00;;;;;;;;5063613;28;45546;-79
2023/06/17 08:45:01;;;;;;;;;11.00;8.33;;;;;;;;5058894;28;45335;-79
2023/06/17 08:47:26;;;;;;;;;14.00;12.67;;;;;;;;5052283;28;46923;-79
2023/06/17 08:49:56;;;;;;;;;10.67;10.00;;;;;;;;5059085;28;45318;-78
2023/06/17 08:52:22;;;;;;;;;11.25;11.25;;;;;;;;5037992;28;45897;-81
2023/06/17 08:54:48;;;;;;;;;15.67;13.33;;;;;;;;5064254;28;45578;-82
2023/06/17 08:57:14;;;;;;;;;8.33;8.33;;;;;;;;5064461;28;45328;-83
2023/06/17 08:59:40;;;;;;;;;11.00;11.00;;;;;;;;5067373;28;45388;-84
2023/06/17 09:02:05;;;;;;;;;12.33;11.00;;;;;;;;5064671;28;45693;-79
2023/06/17 09:04:31;;;;;;;;;10.67;9.67;;;;;;;;5060909;28;45653;-82
2023/06/17 09:06:56;;;;;;;;;12.00;12.00;;;;;;;;5061452;28;45010;-81
2023/06/17 09:09:22;;;;;;;;;12.33;11.33;;;;;;;;5061962;28;45810;-80
2023/06/17 09:11:48;;;;;;;;;11.00;10.67;;;;;;;;5045593;28;45554;-81
2023/06/17 09:14:16;;;;;;;;;10.00;10.00;;;;;;;;5057235;28;45494;-80
2023/06/17 09:16:44;;;;;;;;;16.00;15.00;;;;;;;;5059912;28;45504;-82
2023/06/17 09:19:09;;;;;;;;;13.00;10.67;;;;;;;;5059360;28;45705;-80
2023/06/17 09:21:44;;;;;;;;;12.00;12.00;;;;;;;;5059355;28;45408;-81
2023/06/17 09:24:10;;;;;;;;;12.33;10.00;;;;;;;;5037783;28;46150;-79
2023/06/17 09:26:43;;;;;;;;;19.00;16.00;;;;;;;;5039674;28;45894;-80
2023/06/17 09:29:09;;;;;;;;;13.00;12.00;;;;;;;;5053428;28;46723;-79
2023/06/17 09:31:51;;;;;;;;;15.00;14.00;;;;;;;;5035089;28;45617;-76
2023/06/17 09:34:17;;;;;;;;;17.00;14.67;;;;;;;;5032044;28;45820;-77
2023/06/17 09:36:42;;;;;;;;;17.67;16.00;;;;;;;;5047389;28;46047;-75
2023/06/17 09:39:12;;;;;;;;;15.00;13.67;;;;;;;;5048719;28;45735;-77
2023/06/17 09:41:40;;;;;;;;;17.00;13.00;;;;;;;;5050242;28;45421;-83
2023/06/17 09:44:06;;;;;;;;;13.00;13.00;;;;;;;;5033050;28;46447;-77
2023/06/17 09:46:35;;;;;;;;;16.67;16.33;;;;;;;;5041967;28;45429;-76
2023/06/17 09:49:05;;;;;;;;;23.33;21.33;;;;;;;;5044302;28;45863;-76
2023/06/17 09:51:36;;;;;;;;;14.67;12.67;;;;;;;;5044791;28;45928;-79
2023/06/17 09:54:02;;;;;;;;;16.33;14.00;;;;;;;;5046675;28;46724;-78
2023/06/17 09:56:31;;;;;;;;;16.00;16.00;;;;;;;;5031490;28;46304;-78
2023/06/17 09:58:56;;;;;;;;;14.67;12.33;;;;;;;;5030827;28;45628;-76
2023/06/17 10:01:24;;;;;;;;;18.00;15.67;;;;;;;;5046057;28;45495;-77
2023/06/17 10:03:50;;;;;;;;;14.67;13.67;;;;;;;;5049235;28;45991;-79
2023/06/17 10:06:18;;;;;;;;;13.33;13.33;;;;;;;;5045112;28;46466;-79
2023/06/17 10:08:44;;;;;;;;;11.00;11.00;;;;;;;;5049710;28;45482;-79
2023/06/17 10:11:14;;;;;;;;;14.00;14.00;;;;;;;;5020810;28;46003;-75
2023/06/17 10:13:40;;;;;;;;;10.00;10.00;;;;;;;;5047288;28;45918;-78
2023/06/17 10:16:08;;;;;;;;;17.33;15.33;;;;;;;;5044811;28;47157;-77
2023/06/17 10:18:35;;;;;;;;;16.00;16.00;;;;;;;;5048727;28;45498;-78
2023/06/17 10:21:01;;;;;;;;;14.33;13.33;;;;;;;;5046441;28;45856;-78
2023/06/17 10:23:27;;;;;;;;;14.33;14.33;;;;;;;;5048390;28;45526;-78
2023/06/17 10:25:55;;;;;;;;;13.33;13.00;;;;;;;;5030311;28;47295;-77
2023/06/17 10:28:20;;;;;;;;;13.00;13.00;;;;;;;;5051205;28;45792;-78
2023/06/17 10:30:48;;;;;;;;;17.00;15.67;;;;;;;;5048920;28;45826;-78
2023/06/17 10:33:14;;;;;;;;;18.67;18.67;;;;;;;;5048679;28;45509;-79
2023/06/17 10:35:40;;;;;;;;;32.00;31.00;;;;;;;;5032062;28;46742;-77
2023/06/17 10:38:06;;;;;;;;;35.33;32.67;;;;;;;;5025234;28;45654;-78
2023/06/17 10:40:35;;;;;;;;;17.00;17.00;;;;;;;;5048642;28;45598;-78
2023/06/17 10:43:01;;;;;;;;;30.33;30.00;;;;;;;;5056214;28;45559;-76
2023/06/17 10:45:30;;;;;;;;;46.00;38.33;;;;;;;;5046132;28;47415;-78
2023/06/17 10:48:22;;;;;;;;;21.00;21.00;;;;;;;;5032724;28;45561;-79
2023/06/17 10:50:53;;;;;;;;;24.67;21.33;;;;;;;;5045821;28;45657;-78
2023/06/17 10:53:22;;;;;;;;;20.00;19.67;;;;;;;;5044849;28;45565;-76
2023/06/17 10:55:47;;;;;;;;;16.33;15.67;;;;;;;;5052511;28;46353;-78
2023/06/17 10:58:13;;;;;;;;;18.33;17.67;;;;;;;;5033873;28;45853;-80
2023/06/17 11:00:38;;;;;;;;;15.67;15.67;;;;;;;;5052698;28;45503;-77
2023/06/17 11:03:04;;;;;;;;;18.00;18.00;;;;;;;;5049388;28;45472;-77
2023/06/17 11:05:36;;;;;;;;;17.33;16.33;;;;;;;;5059233;28;45807;-78
2023/06/17 11:08:05;;;;;;;;;18.00;17.33;;;;;;;;5047560;28;45668;-79
2023/06/17 11:10:31;;;;;;;;;15.00;15.00;;;;;;;;5040393;28;45572;-77
2023/06/17 11:12:56;;;;;;;;;15.33;13.67;;;;;;;;5047311;28;45732;-80
2023/06/17 11:15:22;;;;;;;;;14.50;14.50;;;;;;;;5028319;28;46595;-78
2023/06/17 11:17:48;;;;;;;;;15.33;15.33;;;;;;;;5039718;28;45791;-78
2023/06/17 11:20:13;;;;;;;;;16.67;15.33;;;;;;;;5047046;28;45478;-79
2023/06/17 11:22:39;;;;;;;;;17.67;17.67;;;;;;;;5018282;28;45880;-78
2023/06/17 11:25:05;;;;;;;;;18.67;18.67;;;;;;;;5046276;28;45693;-79
2023/06/17 11:27:33;;;;;;;;;14.00;13.33;;;;;;;;5043364;28;45509;-78
2023/06/17 11:29:58;;;;;;;;;16.33;16.33;;;;;;;;5037323;28;45560;-78
2023/06/17 11:32:24;;;;;;;;;14.67;13.33;;;;;;;;5032081;28;47161;-75
2023/06/17 11:34:51;;;;;;;;;15.33;15.33;;;;;;;;5050731;28;46159;-78
2023/06/17 11:37:16;;;;;;;;;17.67;15.00;;;;;;;;5048475;28;45413;-80
2023/06/17 11:39:42;;;;;;;;;15.00;15.00;;;;;;;;5033037;28;45304;-79
2023/06/17 11:42:08;;;;;;;;;13.00;12.67;;;;;;;;5050539;28;45398;-77
2023/06/17 11:44:34;;;;;;;;;15.33;14.33;;;;;;;;5051757;28;46811;-82
2023/06/17 11:47:03;;;;;;;;;12.00;12.00;;;;;;;;5030706;28;45310;-78
2023/06/17 11:49:29;;;;;;;;;13.67;13.00;;;;;;;;5041457;28;45872;-78
2023/06/17 11:51:59;;;;;;;;;12.33;12.33;;;;;;;;5050965;28;45584;-77
2023/06/17 11:54:25;;;;;;;;;13.33;12.33;;;;;;;;5050031;28;45536;-78
2023/06/17 11:56:52;;;;;;;;;12.67;12.00;;;;;;;;5033371;28;45946;-78
2023/06/17 11:59:19;;;;;;;;;12.00;11.00;;;;;;;;5041404;28;45588;-79
2023/06/17 12:01:45;;;;;;;;;19.67;18.00;;;;;;;;5051954;28;45493;-78
2023/06/17 12:04:12;;;;;;;;;15.67;14.67;;;;;;;;5033384;28;45521;-79
2023/06/17 12:06:37;;;;;;;;;17.33;16.33;;;;;;;;5049589;28;45514;-80
2023/06/17 12:09:03;;;;;;;;;14.00;14.00;;;;;;;;5052561;28;45490;-79
2023/06/17 12:11:35;;;;;;;;;13.33;13.33;;;;;;;;5048070;28;45562;-80
2023/06/17 12:14:05;;;;;;;;;16.00;14.33;;;;;;;;5034028;28;46033;-80
2023/06/17 12:16:34;;;;;;;;;21.00;19.00;;;;;;;;5034775;28;45972;-80
2023/06/17 12:19:00;;;;;;;;;13.67;12.67;;;;;;;;5048239;28;45936;-80
2023/06/17 12:21:25;;;;;;;;;16.67;16.67;;;;;;;;5052122;28;45600;-79
2023/06/17 12:23:53;;;;;;;;;14.67;14.00;;;;;;;;5055559;28;47460;-79
2023/06/17 12:26:23;;;;;;;;;14.33;13.00;;;;;;;;5047499;28;45644;-80
2023/06/17 12:28:49;;;;;;;;;17.33;15.33;;;;;;;;5032052;28;45460;-77
2023/06/17 12:31:14;;;;;;;;;17.00;16.00;;;;;;;;5049053;28;45626;-78
2023/06/17 12:33:40;;;;;;;;;14.00;14.00;;;;;;;;5050905;28;45672;-77
2023/06/17 12:36:06;;;;;;;;;15.67;15.00;;;;;;;;5047559;28;45800;-81
2023/06/17 12:38:32;;;;;;;;;15.67;13.00;;;;;;;;5029446;28;45859;-80
2023/06/17 12:41:01;;;;;;;;;14.67;14.67;;;;;;;;5048534;28;45767;-79
2023/06/17 12:43:28;;;;;;;;;14.33;13.33;;;;;;;;5043270;28;45739;-79
2023/06/17 12:45:54;;;;;;;;;18.33;17.00;;;;;;;;5047850;28;45727;-77
2023/06/17 12:48:19;;;;;;;;;17.00;14.67;;;;;;;;5023304;28;45772;-80
2023/06/17 12:50:45;;;;;;;;;17.67;15.33;;;;;;;;5036541;28;45426;-79
2023/06/17 12:53:11;;;;;;;;;17.33;14.00;;;;;;;;5032741;28;45459;-74
2023/06/17 12:55:36;;;;;;;;;14.67;12.33;;;;;;;;5028307;28;45828;-78
2023/06/17 12:58:02;;;;;;;;;17.67;17.67;;;;;;;;5046022;28;45434;-74
2023/06/17 13:00:27;;;;;;;;;19.67;18.33;;;;;;;;5048539;28;45572;-77
2023/06/17 13:02:54;;;;;;;;;11.67;11.67;;;;;;;;5031754;28;48120;-77
2023/06/17 13:05:19;;;;;;;;;14.33;13.00;;;;;;;;5050090;28;46089;-77
2023/06/17 13:07:44;;;;;;;;;16.67;16.67;;;;;;;;5051099;28;45719;-78
2023/06/17 13:10:10;;;;;;;;;15.00;14.00;;;;;;;;5044662;28;46109;-77
2023/06/17 13:12:36;;;;;;;;;18.33;18.33;;;;;;;;5054334;28;45923;-83
2023/06/17 13:15:03;;;;;;;;;15.00;15.00;;;;;;;;5035412;28;45413;-84
2023/06/17 13:17:29;;;;;;;;;14.67;14.67;;;;;;;;5034234;28;45731;-84
2023/06/17 13:19:54;;;;;;;;;14.33;14.33;;;;;;;;5048033;28;45852;-82
2023/06/17 13:22:24;;;;;;;;;17.67;17.33;;;;;;;;5061008;28;46287;-89
2023/06/17 13:24:49;;;;;;;;;17.00;16.00;;;;;;;;5049827;28;45437;-89
2023/06/17 13:27:18;;;;;;;;;20.67;18.67;;;;;;;;5059840;28;45414;-88
2023/06/17 13:29:49;;;;;;;;;17.67;16.33;;;;;;;;5044687;28;46115;-85
2023/06/17 13:32:15;;;;;;;;;18.00;17.33;;;;;;;;5061842;28;45779;-83
2023/06/17 13:34:40;;;;;;;;;19.00;17.33;;;;;;;;5053269;28;45316;-85
2023/06/17 13:37:05;;;;;;;;;18.00;17.00;;;;;;;;5044151;28;45616;-77
2023/06/17 13:42:35;;;;;;;;;16.67;16.00;;;;;;;;5048674;28;46362;-83
2023/06/17 13:45:01;;;;;;;;;15.00;15.00;;;;;;;;5039108;28;45438;-83
2023/06/17 13:47:26;;;;;;;;;20.00;17.33;;;;;;;;5059448;28;45473;-80
2023/06/17 13:49:52;;;;;;;;;17.00;14.33;;;;;;;;5067957;28;45545;-84
2023/06/17 13:52:17;;;;;;;;;20.00;18.67;;;;;;;;5063830;28;45677;-83
2023/06/17 13:54:42;;;;;;;;;19.33;17.67;;;;;;;;5052854;28;45395;-85
2023/06/17 13:57:11;;;;;;;;;15.00;12.33;;;;;;;;5046998;28;45363;-84
2023/06/17 13:59:37;;;;;;;;;18.00;16.00;;;;;;;;5046824;28;46611;-78
2023/06/17 14:02:16;;;;;;;;;16.00;16.00;;;;;;;;5059144;28;45927;-85
2023/06/17 14:04:56;;;;;;;;;;;;;;;;;;;;;
2023/06/17 14:07:22;;;;;;;;;19.67;16.33;;;;;;;;5059553;28;68917;-87
2023/06/17 14:13:00;;;;;;;;;18.33;16.67;;;;;;;;4957803;28;45971;-80
2023/06/17 14:15:26;;;;;;;;;14.67;14.00;;;;;;;;5037676;28;45465;-79
2023/06/17 14:17:51;;;;;;;;;15.67;15.67;;;;;;;;5059484;28;45589;-82
2023/06/17 14:20:16;;;;;;;;;14.00;14.00;;;;;;;;5060001;28;45445;-82